createdAt,value
2022-10-18T00:02:23.720Z,100687.38
2022-10-18T00:04:50.630Z,100682.81
2022-10-18T00:07:17.413Z,100687.97
2022-10-18T00:09:44.323Z,100681.16
2022-10-18T00:12:12.182Z,100680.50
2022-10-18T00:14:39.073Z,100681.59
2022-10-18T00:17:05.962Z,100680.00
2022-10-18T00:19:32.773Z,100684.09
2022-10-18T00:21:59.564Z,100676.69
2022-10-18T00:24:26.462Z,100669.97
2022-10-18T00:26:53.321Z,100680.22
2022-10-18T00:29:20.272Z,100672.22
2022-10-18T00:31:47.122Z,100671.56
2022-10-18T00:34:15.993Z,100668.47
2022-10-18T00:36:44.044Z,100668.03
2022-10-18T00:39:19.883Z,100650.38
2022-10-18T00:41:46.783Z,100653.16
2022-10-18T00:44:13.648Z,100654.59
2022-10-18T00:46:43.453Z,100652.84
2022-10-18T00:49:25.354Z,100646.81
2022-10-18T00:51:58.097Z,100644.00
2022-10-18T00:54:25.718Z,100647.66
2022-10-18T00:56:52.868Z,100644.00
2022-10-18T00:59:20.342Z,100643.94
2022-10-18T01:01:47.311Z,100630.88
2022-10-18T01:04:16.130Z,100635.34
2022-10-18T01:06:58.254Z,100639.06
2022-10-18T01:09:41.540Z,100639.69
2022-10-18T01:12:25.091Z,100640.63
2022-10-18T01:14:59.703Z,100635.78
2022-10-18T01:17:26.542Z,100636.78
2022-10-18T01:20:16.632Z,100636.03
2022-10-18T01:23:04.222Z,100633.19
2022-10-18T01:26:20.613Z,100625.69
2022-10-18T01:28:56.267Z,100623.31
2022-10-18T01:31:40.026Z,100619.72
2022-10-18T01:34:10.493Z,100623.13
2022-10-18T01:36:48.491Z,100611.75
2022-10-18T01:39:37.983Z,100618.69
2022-10-18T01:42:10.135Z,100609.78
2022-10-18T01:44:39.295Z,100618.16
2022-10-18T01:47:10.609Z,100608.81
2022-10-18T01:49:37.621Z,100610.06
2022-10-18T01:52:05.008Z,100614.56
2022-10-18T01:54:40.225Z,100612.16
2022-10-18T01:57:19.823Z,100613.09
2022-10-18T02:00:00.110Z,100606.69
2022-10-18T02:02:41.356Z,100603.75
2022-10-18T02:05:33.222Z,100599.41
2022-10-18T02:08:22.068Z,100605.66
2022-10-18T02:10:55.310Z,100609.94
2022-10-18T02:13:24.032Z,100598.81
2022-10-18T02:15:56.601Z,100595.41
2022-10-18T02:18:28.293Z,100600.72
2022-10-18T02:20:56.052Z,100594.19
2022-10-18T02:23:26.919Z,100600.38
2022-10-18T02:25:54.272Z,100588.50
2022-10-18T02:28:22.020Z,100597.06
2022-10-18T02:31:27.700Z,100594.13
2022-10-18T02:33:58.971Z,100598.34
2022-10-18T02:36:33.767Z,100589.63
2022-10-18T02:39:25.361Z,100597.44
2022-10-18T02:41:55.623Z,100591.53
2022-10-18T02:44:22.467Z,100588.47
2022-10-18T02:46:49.349Z,100596.09
2022-10-18T02:49:17.585Z,100585.88
2022-10-18T02:51:44.391Z,100590.91
2022-10-18T02:54:11.301Z,100591.50
2022-10-18T02:56:38.225Z,100595.53
2022-10-18T02:59:07.472Z,100585.06
2022-10-18T03:01:37.562Z,100592.38
2022-10-18T03:04:07.788Z,100595.88
2022-10-18T03:06:34.732Z,100590.56
2022-10-18T03:09:06.572Z,100605.16
2022-10-18T03:11:33.483Z,100601.56
2022-10-18T03:14:03.090Z,100598.78
2022-10-18T03:16:30.039Z,100590.88
2022-10-18T03:18:57.023Z,100591.91
2022-10-18T03:21:23.882Z,100596.00
2022-10-18T03:23:50.714Z,100594.06
2022-10-18T03:26:17.738Z,100600.19
2022-10-18T03:28:44.684Z,100597.59
2022-10-18T03:31:11.636Z,100592.34
2022-10-18T03:33:38.551Z,100593.16
2022-10-18T03:36:05.552Z,100593.84
2022-10-18T03:38:32.433Z,100601.50
2022-10-18T03:40:59.362Z,100598.50
2022-10-18T03:43:26.263Z,100598.72
2022-10-18T03:45:53.151Z,100587.94
2022-10-18T03:48:20.145Z,100594.84
2022-10-18T03:50:46.912Z,100581.88
2022-10-18T03:53:13.982Z,100586.94
2022-10-18T03:55:41.162Z,100593.84
2022-10-18T03:58:08.007Z,100591.81
2022-10-18T04:00:35.142Z,100586.34
2022-10-18T04:03:02.172Z,100592.44
2022-10-18T04:05:31.045Z,100594.94
2022-10-18T04:07:58.632Z,100590.28
2022-10-18T04:10:26.035Z,100597.63
2022-10-18T04:12:53.051Z,100601.31
2022-10-18T04:15:20.657Z,100599.34
2022-10-18T04:17:47.712Z,100593.47
2022-10-18T04:20:14.764Z,100591.84
2022-10-18T04:22:41.620Z,100594.50
2022-10-18T04:25:08.982Z,100590.06
2022-10-18T04:27:36.582Z,100586.34
2022-10-18T04:30:04.062Z,100592.56
2022-10-18T04:32:31.068Z,100587.47
2022-10-18T04:34:57.895Z,100588.09
2022-10-18T04:37:24.744Z,100589.16
2022-10-18T04:39:53.712Z,100590.00
2022-10-18T04:42:22.122Z,100583.88
2022-10-18T04:44:48.992Z,100585.59
2022-10-18T04:47:16.874Z,100586.53
2022-10-18T04:49:43.735Z,100586.53
2022-10-18T04:52:11.932Z,100589.28
2022-10-18T04:54:38.841Z,100581.16
2022-10-18T04:57:05.705Z,100592.16
2022-10-18T04:59:32.525Z,100592.72
2022-10-18T05:01:59.457Z,100587.00
2022-10-18T05:04:26.354Z,100583.63
2022-10-18T05:06:53.163Z,100578.75
2022-10-18T05:09:22.499Z,100580.03
2022-10-18T05:11:49.291Z,100575.50
2022-10-18T05:14:16.370Z,100575.00
2022-10-18T05:16:43.221Z,100575.22
2022-10-18T05:19:10.062Z,100576.41
2022-10-18T05:21:36.863Z,100571.66
2022-10-18T05:24:04.086Z,100564.75
2022-10-18T05:26:30.913Z,100559.84
2022-10-18T05:28:58.013Z,100570.16
2022-10-18T05:31:24.915Z,100569.63
2022-10-18T05:33:51.724Z,100565.41
2022-10-18T05:36:18.885Z,100559.69
2022-10-18T05:38:48.474Z,100565.34
2022-10-18T05:41:15.389Z,100570.63
2022-10-18T05:43:42.281Z,100568.38
2022-10-18T05:46:14.692Z,100569.72
2022-10-18T05:48:44.928Z,100568.41
2022-10-18T05:51:12.176Z,100574.69
2022-10-18T05:53:39.069Z,100570.47
2022-10-18T05:56:07.285Z,100563.47
2022-10-18T05:58:35.741Z,100563.41
2022-10-18T06:01:03.417Z,100566.88
2022-10-18T06:03:33.553Z,100568.53
2022-10-18T06:06:05.821Z,100561.97
2022-10-18T06:08:33.324Z,100562.72
2022-10-18T06:11:00.337Z,100564.84
2022-10-18T06:13:29.104Z,100562.50
2022-10-18T06:15:58.025Z,100560.84
2022-10-18T06:18:24.925Z,100560.75
2022-10-18T06:20:59.192Z,100566.50
2022-10-18T06:23:27.694Z,100573.88
2022-10-18T06:25:58.162Z,100563.81
2022-10-18T06:28:25.178Z,100568.88
2022-10-18T06:30:52.019Z,100573.38
2022-10-18T06:33:18.879Z,100574.06
2022-10-18T06:35:58.375Z,100577.34
2022-10-18T06:38:25.771Z,100577.47
2022-10-18T06:40:53.891Z,100576.81
2022-10-18T06:43:21.661Z,100572.63
2022-10-18T06:46:08.271Z,100576.22
2022-10-18T06:48:36.508Z,100575.13
2022-10-18T06:51:05.568Z,100580.19
2022-10-18T06:53:40.730Z,100569.94
2022-10-18T06:56:13.032Z,100572.81
2022-10-18T06:58:40.993Z,100576.09
2022-10-18T07:01:10.027Z,100575.88
2022-10-18T07:03:37.071Z,100568.81
2022-10-18T07:06:09.007Z,100570.91
2022-10-18T07:08:36.214Z,100566.53
2022-10-18T07:11:03.542Z,100558.63
2022-10-18T07:13:33.103Z,100556.94
2022-10-18T07:16:01.369Z,100554.59
2022-10-18T07:18:28.398Z,100560.97
2022-10-18T07:20:55.263Z,100557.75
2022-10-18T07:23:23.985Z,100553.41
2022-10-18T07:25:51.334Z,100562.84
2022-10-18T07:28:18.495Z,100557.94
2022-10-18T07:30:45.311Z,100565.22
2022-10-18T07:33:12.160Z,100557.56
2022-10-18T07:35:38.953Z,100561.81
2022-10-18T07:38:05.743Z,100556.16
2022-10-18T07:40:32.723Z,100560.66
2022-10-18T07:43:04.089Z,100558.34
2022-10-18T07:45:32.272Z,100553.84
2022-10-18T07:47:59.267Z,100565.00
2022-10-18T07:50:26.175Z,100551.81
2022-10-18T07:52:52.941Z,100546.28
2022-10-18T07:55:19.922Z,100548.03
2022-10-18T07:57:46.763Z,100545.84
2022-10-18T08:00:14.072Z,100549.50
2022-10-18T08:02:40.999Z,100553.69
2022-10-18T08:05:08.098Z,100549.72
2022-10-18T08:07:35.086Z,100542.44
2022-10-18T08:10:02.071Z,100541.66
2022-10-18T08:12:29.005Z,100536.66
2022-10-18T08:14:55.759Z,100534.03
2022-10-18T08:17:22.593Z,100530.03
2022-10-18T08:19:58.567Z,100531.41
2022-10-18T08:22:36.419Z,100527.34
2022-10-18T08:25:04.581Z,100512.03
2022-10-18T08:27:31.724Z,100510.06
2022-10-18T08:30:00.091Z,100507.78
2022-10-18T08:32:28.580Z,100513.69
2022-10-18T08:34:55.482Z,100513.84
2022-10-18T08:37:22.557Z,100505.38
2022-10-18T08:39:49.330Z,100498.16
2022-10-18T08:42:41.195Z,100512.38
2022-10-18T08:45:18.024Z,100513.53
2022-10-18T08:47:58.280Z,100506.88
2022-10-18T08:50:35.488Z,100499.91
2022-10-18T08:53:20.633Z,100494.28
2022-10-18T08:56:05.274Z,100503.22
2022-10-18T08:58:33.800Z,100489.38
2022-10-18T09:01:21.817Z,100502.88
2022-10-18T09:04:08.882Z,100492.91
2022-10-18T09:06:38.957Z,100484.81
2022-10-18T09:09:25.134Z,100490.44
2022-10-18T09:12:03.973Z,100481.25
2022-10-18T09:14:39.905Z,100484.75
2022-10-18T09:17:26.012Z,100478.75
2022-10-18T09:20:11.024Z,100478.69
2022-10-18T09:22:46.872Z,100476.13
2022-10-18T09:25:21.055Z,100477.47
2022-10-18T09:27:57.135Z,100474.13
2022-10-18T09:30:37.440Z,100468.28
2022-10-18T09:33:13.258Z,100472.84
2022-10-18T09:35:55.027Z,100474.75
2022-10-18T09:38:26.710Z,100466.53
2022-10-18T09:41:02.577Z,100458.44
2022-10-18T09:43:48.335Z,100477.13
2022-10-18T09:46:18.354Z,100469.28
2022-10-18T09:49:06.136Z,100462.13
2022-10-18T09:51:40.096Z,100460.66
2022-10-18T09:54:28.435Z,100454.53
2022-10-18T09:57:02.756Z,100446.19
2022-10-18T09:59:41.494Z,100445.09
2022-10-18T10:02:22.672Z,100442.78
2022-10-18T10:04:50.431Z,100433.91
2022-10-18T10:07:19.987Z,100437.38
2022-10-18T10:09:55.767Z,100429.41
2022-10-18T10:12:27.953Z,100437.13
2022-10-18T10:14:54.957Z,100429.59
2022-10-18T10:17:29.870Z,100425.75
2022-10-18T10:20:20.343Z,100430.59
2022-10-18T10:22:48.216Z,100420.19
2022-10-18T10:25:32.957Z,100409.94
2022-10-18T10:28:05.411Z,100409.34
2022-10-18T10:30:35.703Z,100407.38
2022-10-18T10:33:03.713Z,100396.00
2022-10-18T10:38:25.270Z,100380.91
2022-10-18T10:40:52.883Z,100376.47
2022-10-18T10:43:38.168Z,100399.56
2022-10-18T10:46:08.221Z,100366.56
2022-10-18T10:48:46.090Z,100361.00
2022-10-18T10:51:13.510Z,100374.28
2022-10-18T10:53:42.930Z,100361.69
2022-10-18T10:56:37.590Z,100362.47
2022-10-18T10:59:14.609Z,100345.00
2022-10-18T11:01:42.104Z,100331.75
2022-10-18T11:04:30.067Z,100339.97
2022-10-18T11:07:09.500Z,100329.50
2022-10-18T11:09:46.197Z,100317.69
2022-10-18T11:12:38.141Z,100337.84
2022-10-18T11:15:12.118Z,100315.94
2022-10-18T11:18:00.766Z,100313.13
2022-10-18T11:20:49.436Z,100309.59
2022-10-18T11:23:18.225Z,100299.88
2022-10-18T11:26:03.223Z,100306.00
2022-10-18T11:29:03.097Z,100295.22
2022-10-18T11:31:40.552Z,100273.94
2022-10-18T11:34:32.751Z,100281.69
2022-10-18T11:37:37.529Z,100286.41
2022-10-18T11:40:43.880Z,100281.66
2022-10-18T11:43:19.623Z,100254.63
2022-10-18T11:46:05.430Z,100268.56
2022-10-18T11:48:42.965Z,100260.59
2022-10-18T11:51:34.011Z,100258.88
2022-10-18T11:54:17.892Z,100268.50
2022-10-18T11:57:16.475Z,100243.03
2022-10-18T11:59:58.951Z,100238.56
2022-10-18T12:02:37.810Z,100241.34
2022-10-18T12:05:24.367Z,100225.50
2022-10-18T12:08:01.244Z,100236.81
2022-10-18T12:10:52.770Z,100222.75
2022-10-18T12:13:34.076Z,100214.81
2022-10-18T12:16:04.314Z,100222.94
2022-10-18T12:18:33.117Z,100204.09
2022-10-18T12:21:01.974Z,100213.03
2022-10-18T12:23:54.920Z,100194.72
2022-10-18T12:26:23.043Z,100198.91
2022-10-18T12:29:08.538Z,100201.63
2022-10-18T12:31:42.300Z,100195.47
2022-10-18T12:34:42.029Z,100194.53
2022-10-18T12:37:42.139Z,100188.56
2022-10-18T12:40:21.879Z,100183.69
2022-10-18T12:42:52.290Z,100176.28
2022-10-18T12:45:35.059Z,100179.09
2022-10-18T12:48:38.884Z,100173.44
2022-10-18T12:51:16.415Z,100187.59
2022-10-18T12:53:46.548Z,100168.22
2022-10-18T12:56:28.631Z,100157.69
2022-10-18T12:59:16.774Z,100165.44
2022-10-18T13:01:55.545Z,100169.00
2022-10-18T13:04:28.614Z,100152.13
2022-10-18T13:06:58.535Z,100162.97
2022-10-18T13:10:08.379Z,100157.41
2022-10-18T13:12:44.126Z,100162.66
2022-10-18T13:15:26.278Z,100155.94
2022-10-18T13:18:05.912Z,100147.91
2022-10-18T13:20:53.561Z,100146.84
2022-10-18T13:23:41.664Z,100149.66
2022-10-18T13:26:32.058Z,100144.59
2022-10-18T13:29:14.863Z,100143.91
2022-10-18T13:34:49.846Z,100141.31
2022-10-18T13:37:16.635Z,100137.94
2022-10-18T13:39:43.707Z,100140.44
2022-10-18T13:42:16.549Z,100141.38
2022-10-18T13:44:44.892Z,100135.75
2022-10-18T13:47:32.129Z,100128.50
2022-10-18T13:50:21.675Z,100127.09
2022-10-18T13:53:08.269Z,100117.66
2022-10-18T13:56:26.256Z,100123.59
2022-10-18T13:59:28.987Z,100124.75
2022-10-18T14:02:51.832Z,100110.66
2022-10-18T14:05:47.410Z,100114.53
2022-10-18T14:08:20.959Z,100098.53
2022-10-18T14:11:21.516Z,100101.84
2022-10-18T14:14:08.203Z,100093.03
2022-10-18T14:16:46.374Z,100082.66
2022-10-18T14:19:37.023Z,100088.50
2022-10-18T14:22:09.630Z,100082.66
2022-10-18T14:24:41.068Z,100081.19
2022-10-18T14:27:20.052Z,100061.00
2022-10-18T14:29:48.541Z,100085.63
2022-10-18T14:32:30.252Z,100073.13
2022-10-18T14:35:27.338Z,100077.63
2022-10-18T14:37:44.347Z,100063.59
2022-10-18T14:40:39.145Z,100067.03
2022-10-18T14:43:12.751Z,100062.91
2022-10-18T14:45:41.022Z,100053.13
2022-10-18T14:48:34.198Z,100065.53
2022-10-18T14:51:03.304Z,100056.78
2022-10-18T14:53:37.392Z,100053.22
2022-10-18T14:56:04.910Z,100055.94
2022-10-18T14:58:32.937Z,100054.34
2022-10-18T15:01:00.032Z,100054.41
2022-10-18T15:03:28.525Z,100050.09
2022-10-18T15:06:01.938Z,100053.53
2022-10-18T15:08:40.696Z,100054.69
2022-10-18T15:11:11.857Z,100052.06
2022-10-18T15:13:59.956Z,100054.69
2022-10-18T15:16:30.981Z,100051.19
2022-10-18T15:19:15.896Z,100047.84
2022-10-18T15:25:06.085Z,100054.06
2022-10-18T15:27:37.032Z,100034.06
2022-10-18T15:30:11.151Z,100049.00
2022-10-18T15:32:40.499Z,100035.19
2022-10-18T15:35:14.658Z,100042.16
2022-10-18T15:37:47.620Z,100037.84
2022-10-18T15:40:23.353Z,100052.75
2022-10-18T15:42:52.705Z,100046.66
2022-10-18T15:45:25.412Z,100052.81
2022-10-18T15:48:09.527Z,100051.16
2022-10-18T15:50:45.021Z,100048.59
2022-10-18T15:53:21.409Z,100059.13
2022-10-18T15:56:31.231Z,100051.34
2022-10-18T15:59:00.752Z,100054.94
2022-10-18T16:01:38.843Z,100061.06
2022-10-18T16:04:12.672Z,100059.38
2022-10-18T16:06:39.559Z,100057.63
2022-10-18T16:09:06.730Z,100058.44
2022-10-18T16:11:33.592Z,100060.25
2022-10-18T16:14:00.830Z,100050.66
2022-10-18T16:16:47.232Z,100060.38
2022-10-18T16:19:15.831Z,100057.78
2022-10-18T16:21:42.962Z,100053.44
2022-10-18T16:24:09.933Z,100060.44
2022-10-18T16:26:37.822Z,100059.56
2022-10-18T16:29:05.772Z,100047.31
2022-10-18T16:31:34.628Z,100055.19
2022-10-18T16:34:02.660Z,100059.50
2022-10-18T16:36:33.822Z,100059.50
2022-10-18T16:39:03.832Z,100054.22
2022-10-18T16:41:30.670Z,100061.97
2022-10-18T16:43:57.512Z,100067.97
2022-10-18T16:46:30.051Z,100073.00
2022-10-18T16:48:57.984Z,100069.44
2022-10-18T16:51:25.167Z,100069.47
2022-10-18T16:53:53.832Z,100070.16
2022-10-18T16:56:24.487Z,100073.66
2022-10-18T16:58:52.099Z,100070.91
2022-10-18T17:01:21.289Z,100072.66
2022-10-18T17:03:48.801Z,100071.63
2022-10-18T17:06:24.514Z,100080.22
2022-10-18T17:08:52.163Z,100075.03
2022-10-18T17:11:20.133Z,100085.44
2022-10-18T17:13:47.294Z,100080.84
2022-10-18T17:16:31.369Z,100085.97
2022-10-18T17:19:00.564Z,100073.78
2022-10-18T17:21:28.850Z,100072.03
2022-10-18T17:23:57.594Z,100081.59
2022-10-18T17:26:29.257Z,100080.66
2022-10-18T17:28:59.605Z,100084.00
2022-10-18T17:31:26.972Z,100078.78
2022-10-18T17:33:55.493Z,100073.38
2022-10-18T17:36:22.778Z,100078.47
2022-10-18T17:38:53.969Z,100080.69
2022-10-18T17:41:21.353Z,100077.31
2022-10-18T17:43:48.697Z,100073.75
2022-10-18T17:46:16.085Z,100076.09
2022-10-18T17:48:43.219Z,100062.34
2022-10-18T17:51:12.003Z,100075.44
2022-10-18T17:53:39.309Z,100072.69
2022-10-18T17:56:07.856Z,100065.50
2022-10-18T17:58:35.172Z,100069.56
2022-10-18T18:01:28.472Z,100065.03
2022-10-18T18:04:03.472Z,100058.88
2022-10-18T18:06:40.187Z,100046.53
2022-10-18T18:09:10.582Z,100053.25
2022-10-18T18:11:38.878Z,100045.31
2022-10-18T18:14:10.013Z,100038.22
2022-10-18T18:16:39.289Z,100038.31
2022-10-18T18:19:09.662Z,100037.03
2022-10-18T18:21:37.929Z,100037.97
2022-10-18T18:24:05.191Z,100039.50
2022-10-18T18:26:33.564Z,100030.84
2022-10-18T18:31:30.772Z,100030.78
2022-10-18T18:34:01.264Z,100021.28
2022-10-18T18:36:32.680Z,100023.78
2022-10-18T18:38:59.627Z,100028.88
2022-10-18T18:41:28.619Z,100030.34
2022-10-18T18:43:57.991Z,100036.19
2022-10-18T18:46:27.073Z,100026.34
2022-10-18T18:48:54.292Z,100034.19
2022-10-18T18:51:22.136Z,100025.22
2022-10-18T18:53:49.190Z,100023.63
2022-10-18T18:58:54.378Z,100024.84
2022-10-18T19:01:24.093Z,100023.09
2022-10-18T19:03:53.391Z,100020.38
2022-10-18T19:06:41.163Z,100012.59
2022-10-18T19:09:18.551Z,100024.03
2022-10-18T19:11:47.162Z,100011.94
2022-10-18T19:14:15.139Z,100018.69
2022-10-18T19:16:47.619Z,100015.84
2022-10-18T19:19:19.680Z,100017.41
2022-10-18T19:21:49.559Z,100017.41
2022-10-18T19:24:16.370Z,100019.16
2022-10-18T19:26:46.240Z,100024.66
2022-10-18T19:29:29.881Z,100017.41
2022-10-18T19:31:59.463Z,100011.03
2022-10-18T19:34:28.515Z,100015.19
2022-10-18T19:36:55.629Z,100012.56
2022-10-18T19:39:24.702Z,100017.91
2022-10-18T19:41:55.337Z,100011.09
2022-10-18T19:44:23.998Z,100022.38
2022-10-18T19:46:51.648Z,100017.91
2022-10-18T19:49:18.603Z,100024.50
2022-10-18T19:51:45.642Z,100020.81
2022-10-18T19:54:14.030Z,100020.56
2022-10-18T19:56:44.369Z,100031.66
2022-10-18T19:59:12.778Z,100021.09
2022-10-18T20:01:39.707Z,100034.25
2022-10-18T20:04:08.397Z,100029.56
2022-10-18T20:06:36.249Z,100014.72
2022-10-18T20:09:03.525Z,100035.25
2022-10-18T20:11:30.652Z,100015.94
2022-10-18T20:13:57.826Z,100023.69
2022-10-18T20:16:28.865Z,100023.69
2022-10-18T20:19:00.945Z,100025.41
2022-10-18T20:21:29.399Z,100012.09
2022-10-18T20:23:56.711Z,100013.44
2022-10-18T20:26:25.558Z,100024.81
2022-10-18T20:28:57.242Z,100014.63
2022-10-18T20:31:29.318Z,100005.75
2022-10-18T20:33:59.124Z,100017.22
2022-10-18T20:36:27.091Z,100001.25
2022-10-18T20:38:55.072Z,100000.34
2022-10-18T20:41:28.500Z,100010.50
2022-10-18T20:44:10.887Z,99994.22
2022-10-18T20:46:38.601Z,99998.63
2022-10-18T20:49:07.110Z,100004.69
2022-10-18T20:51:34.419Z,100004.41
2022-10-18T20:56:34.439Z,99999.22
2022-10-18T20:59:01.908Z,99996.50
2022-10-18T21:01:31.868Z,99996.47
2022-10-18T21:04:01.565Z,99982.59
2022-10-18T21:06:34.283Z,99981.84
2022-10-18T21:09:03.383Z,99983.53
2022-10-18T21:11:34.343Z,99982.28
2022-10-18T21:14:04.897Z,99980.41
2022-10-18T21:16:33.866Z,99975.13
2022-10-18T21:19:05.051Z,99967.28
2022-10-18T21:21:31.934Z,99970.50
2022-10-18T21:24:02.408Z,99959.00
2022-10-18T21:26:32.282Z,99972.88
2022-10-18T21:28:59.939Z,99963.72
2022-10-18T21:31:29.640Z,99955.72
2022-10-18T21:33:59.093Z,99942.69
2022-10-18T21:36:27.544Z,99960.69
2022-10-18T21:38:54.417Z,99946.66
2022-10-18T21:41:21.930Z,99948.34
2022-10-18T21:43:51.185Z,99941.72
2022-10-18T21:46:19.986Z,99934.72
2022-10-18T21:48:49.184Z,99934.16
2022-10-18T21:51:18.506Z,99922.72
2022-10-18T21:53:47.254Z,99929.13
2022-10-18T21:56:19.618Z,99924.69
2022-10-18T21:58:46.967Z,99917.03
2022-10-18T22:01:15.364Z,99903.56
2022-10-18T22:03:42.902Z,99911.69
2022-10-18T22:06:14.715Z,99914.06
2022-10-18T22:08:43.675Z,99914.78
2022-10-18T22:11:12.625Z,99909.72
2022-10-18T22:13:39.934Z,99910.25
2022-10-18T22:16:07.883Z,99906.88
2022-10-18T22:18:35.595Z,99904.28
2022-10-18T22:21:06.278Z,99904.41
2022-10-18T22:23:35.736Z,99902.34
2022-10-18T22:26:14.653Z,99908.19
2022-10-18T22:28:43.005Z,99897.63
2022-10-18T22:33:32.502Z,99901.59
2022-10-18T22:35:59.322Z,99901.13
2022-10-18T22:38:26.123Z,99894.75
2022-10-18T22:40:53.189Z,99901.47
2022-10-18T22:43:19.983Z,99907.19
2022-10-18T22:45:46.897Z,99897.59
2022-10-18T22:48:13.732Z,99900.09
2022-10-18T22:50:40.636Z,99897.50
2022-10-18T22:53:07.742Z,99896.06
2022-10-18T22:55:34.627Z,99897.75
2022-10-18T22:58:07.757Z,99896.28
2022-10-18T23:00:34.718Z,99894.59
2022-10-18T23:03:01.730Z,99882.66
2022-10-18T23:05:28.843Z,99887.31
2022-10-18T23:07:55.633Z,99895.91
2022-10-18T23:10:22.685Z,99892.84
2022-10-18T23:12:49.534Z,99892.00
2022-10-18T23:15:16.369Z,99888.78
2022-10-18T23:17:43.366Z,99887.81
2022-10-18T23:20:10.575Z,99887.81
2022-10-18T23:22:37.514Z,99880.81
2022-10-18T23:25:04.766Z,99887.97
2022-10-18T23:27:31.790Z,99884.94
2022-10-18T23:29:58.665Z,99879.34
2022-10-18T23:32:43.935Z,99873.03
2022-10-18T23:35:11.120Z,99877.94
2022-10-18T23:37:38.183Z,99883.16
2022-10-18T23:40:05.462Z,99881.53
2022-10-18T23:42:32.359Z,99880.63
2022-10-18T23:44:59.162Z,99877.81
2022-10-18T23:47:26.002Z,99866.31
2022-10-18T23:49:53.388Z,99866.94
2022-10-18T23:52:20.220Z,99870.56
2022-10-18T23:54:47.268Z,99867.84
2022-10-18T23:57:14.493Z,99867.88
2022-10-18T23:59:41.319Z,99864.69
